CAP weather

Cap Haitien International Airport
Cap Haitien, Nord Department, Haiti

Public forecast

Using degrees Celsius for public forecast. Weather courtesy of forecast.io.

METAR (pilot weather report)

Retrieved 2019/03/25 14:00 UTC (2 hours ago):

MTCH 251400Z 20004KT 9999 FEW029 27/18 Q1016 A3003

TAF (pilot weather forecast)

Retrieved 2019/03/25 12:46 UTC (3 hours ago):

TAF MTCH 251136Z 2512/2612 VRB02KT 9000 SCT024 BECMG 2516/2520 03010KT PROB30 TEMPO 2600/2604 4500 SHRA SCT022CB BKN070 BECMG 2608/2612 VRB02KT 9000 FEW016